sensor_id;sensor_type;location;lat;lon;timestamp;P1;durP1;ratioP1;P2;durP2;ratioP2
10945;SDS011;5525;42.648;23.368;2023-04-15T00:01:34;3.05;;;2.00;;
10945;SDS011;5525;42.648;23.368;2023-04-15T00:04:02;2.88;;;2.00;;
10945;SDS011;5525;42.648;23.368;2023-04-15T00:06:28;3.25;;;1.95;;
10945;SDS011;5525;42.648;23.368;2023-04-15T00:08:56;2.60;;;2.15;;
10945;SDS011;5525;42.648;23.368;2023-04-15T00:11:23;2.45;;;2.15;;
10945;SDS011;5525;42.648;23.368;2023-04-15T00:13:50;2.95;;;2.30;;
10945;SDS011;5525;42.648;23.368;2023-04-15T00:16:16;2.85;;;2.22;;
10945;SDS011;5525;42.648;23.368;2023-04-15T00:18:43;3.65;;;2.63;;
10945;SDS011;5525;42.648;23.368;2023-04-15T00:21:10;4.93;;;3.22;;
10945;SDS011;5525;42.648;23.368;2023-04-15T00:23:36;4.20;;;2.70;;
10945;SDS011;5525;42.648;23.368;2023-04-15T00:26:04;4.57;;;3.13;;
10945;SDS011;5525;42.648;23.368;2023-04-15T00:28:31;4.32;;;2.80;;
10945;SDS011;5525;42.648;23.368;2023-04-15T00:30:58;4.60;;;3.22;;
10945;SDS011;5525;42.648;23.368;2023-04-15T00:33:24;4.78;;;3.33;;
10945;SDS011;5525;42.648;23.368;2023-04-15T00:35:51;4.57;;;2.95;;
10945;SDS011;5525;42.648;23.368;2023-04-15T00:38:17;4.72;;;3.05;;
10945;SDS011;5525;42.648;23.368;2023-04-15T00:40:44;4.47;;;3.17;;
10945;SDS011;5525;42.648;23.368;2023-04-15T00:43:12;5.72;;;3.05;;
10945;SDS011;5525;42.648;23.368;2023-04-15T00:45:40;5.22;;;3.00;;
10945;SDS011;5525;42.648;23.368;2023-04-15T00:48:07;4.93;;;3.58;;
10945;SDS011;5525;42.648;23.368;2023-04-15T00:50:34;5.25;;;3.40;;
10945;SDS011;5525;42.648;23.368;2023-04-15T00:53:01;4.85;;;3.63;;
10945;SDS011;5525;42.648;23.368;2023-04-15T00:55:27;8.00;;;4.22;;
10945;SDS011;5525;42.648;23.368;2023-04-15T00:57:54;5.00;;;3.40;;
10945;SDS011;5525;42.648;23.368;2023-04-15T01:00:23;5.80;;;3.90;;
10945;SDS011;5525;42.648;23.368;2023-04-15T01:02:50;6.60;;;4.25;;
10945;SDS011;5525;42.648;23.368;2023-04-15T01:05:17;6.38;;;4.45;;
10945;SDS011;5525;42.648;23.368;2023-04-15T01:07:44;5.18;;;4.05;;
10945;SDS011;5525;42.648;23.368;2023-04-15T01:10:11;6.65;;;4.38;;
10945;SDS011;5525;42.648;23.368;2023-04-15T01:12:38;8.65;;;4.00;;
10945;SDS011;5525;42.648;23.368;2023-04-15T01:15:05;5.07;;;4.22;;
10945;SDS011;5525;42.648;23.368;2023-04-15T01:17:36;5.63;;;3.85;;
10945;SDS011;5525;42.648;23.368;2023-04-15T01:20:03;5.40;;;3.70;;
10945;SDS011;5525;42.648;23.368;2023-04-15T01:22:30;4.47;;;3.20;;
10945;SDS011;5525;42.648;23.368;2023-04-15T01:25:00;5.07;;;3.08;;
10945;SDS011;5525;42.648;23.368;2023-04-15T01:27:33;3.97;;;2.90;;
10945;SDS011;5525;42.648;23.368;2023-04-15T01:30:00;3.30;;;2.55;;
10945;SDS011;5525;42.648;23.368;2023-04-15T01:32:29;4.88;;;2.75;;
10945;SDS011;5525;42.648;23.368;2023-04-15T01:34:55;4.25;;;3.10;;
10945;SDS011;5525;42.648;23.368;2023-04-15T01:37:22;3.40;;;2.60;;
10945;SDS011;5525;42.648;23.368;2023-04-15T01:39:50;4.95;;;2.92;;
10945;SDS011;5525;42.648;23.368;2023-04-15T01:42:17;4.15;;;2.67;;
10945;SDS011;5525;42.648;23.368;2023-04-15T01:44:45;5.13;;;2.88;;
10945;SDS011;5525;42.648;23.368;2023-04-15T01:47:11;3.65;;;2.78;;
10945;SDS011;5525;42.648;23.368;2023-04-15T01:49:38;4.90;;;2.72;;
10945;SDS011;5525;42.648;23.368;2023-04-15T01:52:05;5.13;;;2.60;;
10945;SDS011;5525;42.648;23.368;2023-04-15T01:54:32;4.43;;;2.75;;
10945;SDS011;5525;42.648;23.368;2023-04-15T01:56:59;4.15;;;2.55;;
10945;SDS011;5525;42.648;23.368;2023-04-15T01:59:26;3.35;;;2.78;;
10945;SDS011;5525;42.648;23.368;2023-04-15T02:01:54;3.70;;;2.80;;
10945;SDS011;5525;42.648;23.368;2023-04-15T02:04:21;4.47;;;3.00;;
10945;SDS011;5525;42.648;23.368;2023-04-15T02:06:48;4.60;;;2.75;;
10945;SDS011;5525;42.648;23.368;2023-04-15T02:09:14;4.68;;;3.00;;
10945;SDS011;5525;42.648;23.368;2023-04-15T02:11:41;5.03;;;3.00;;
10945;SDS011;5525;42.648;23.368;2023-04-15T02:14:07;4.78;;;3.00;;
10945;SDS011;5525;42.648;23.368;2023-04-15T02:16:34;3.67;;;2.58;;
10945;SDS011;5525;42.648;23.368;2023-04-15T02:19:02;4.93;;;2.83;;
10945;SDS011;5525;42.648;23.368;2023-04-15T02:21:29;4.30;;;2.70;;
10945;SDS011;5525;42.648;23.368;2023-04-15T02:23:55;4.13;;;2.90;;
10945;SDS011;5525;42.648;23.368;2023-04-15T02:26:22;4.95;;;3.03;;
10945;SDS011;5525;42.648;23.368;2023-04-15T02:28:50;4.10;;;3.00;;
10945;SDS011;5525;42.648;23.368;2023-04-15T02:31:16;3.33;;;2.55;;
10945;SDS011;5525;42.648;23.368;2023-04-15T02:33:43;4.72;;;3.40;;
10945;SDS011;5525;42.648;23.368;2023-04-15T02:36:12;3.60;;;3.00;;
10945;SDS011;5525;42.648;23.368;2023-04-15T02:38:38;3.53;;;3.05;;
10945;SDS011;5525;42.648;23.368;2023-04-15T02:41:07;4.50;;;2.90;;
10945;SDS011;5525;42.648;23.368;2023-04-15T02:43:34;4.35;;;3.08;;
10945;SDS011;5525;42.648;23.368;2023-04-15T02:46:02;4.43;;;3.17;;
10945;SDS011;5525;42.648;23.368;2023-04-15T02:48:28;5.70;;;3.17;;
10945;SDS011;5525;42.648;23.368;2023-04-15T02:51:09;4.65;;;2.97;;
10945;SDS011;5525;42.648;23.368;2023-04-15T02:53:38;5.30;;;3.58;;
10945;SDS011;5525;42.648;23.368;2023-04-15T02:56:05;7.35;;;4.57;;
10945;SDS011;5525;42.648;23.368;2023-04-15T02:58:33;4.57;;;3.72;;
10945;SDS011;5525;42.648;23.368;2023-04-15T03:01:00;4.63;;;3.80;;
10945;SDS011;5525;42.648;23.368;2023-04-15T03:03:27;6.30;;;3.80;;
10945;SDS011;5525;42.648;23.368;2023-04-15T03:05:54;4.28;;;3.40;;
10945;SDS011;5525;42.648;23.368;2023-04-15T03:08:22;3.97;;;3.50;;
10945;SDS011;5525;42.648;23.368;2023-04-15T03:10:48;5.90;;;3.50;;
10945;SDS011;5525;42.648;23.368;2023-04-15T03:13:16;4.05;;;3.28;;
10945;SDS011;5525;42.648;23.368;2023-04-15T03:15:45;4.18;;;3.10;;
10945;SDS011;5525;42.648;23.368;2023-04-15T03:18:11;6.32;;;3.63;;
10945;SDS011;5525;42.648;23.368;2023-04-15T03:20:38;4.88;;;3.40;;
10945;SDS011;5525;42.648;23.368;2023-04-15T03:23:05;4.97;;;3.58;;
10945;SDS011;5525;42.648;23.368;2023-04-15T03:25:33;4.55;;;3.20;;
10945;SDS011;5525;42.648;23.368;2023-04-15T03:28:01;4.55;;;3.65;;
10945;SDS011;5525;42.648;23.368;2023-04-15T03:30:28;4.35;;;3.35;;
10945;SDS011;5525;42.648;23.368;2023-04-15T03:32:55;4.60;;;2.97;;
10945;SDS011;5525;42.648;23.368;2023-04-15T03:35:22;4.20;;;2.95;;
10945;SDS011;5525;42.648;23.368;2023-04-15T03:37:48;5.05;;;3.35;;
10945;SDS011;5525;42.648;23.368;2023-04-15T03:40:15;5.40;;;3.85;;
10945;SDS011;5525;42.648;23.368;2023-04-15T03:42:43;4.68;;;3.45;;
10945;SDS011;5525;42.648;23.368;2023-04-15T03:45:10;3.75;;;3.30;;
10945;SDS011;5525;42.648;23.368;2023-04-15T03:47:37;4.40;;;3.45;;
10945;SDS011;5525;42.648;23.368;2023-04-15T03:50:04;5.10;;;3.90;;
10945;SDS011;5525;42.648;23.368;2023-04-15T03:52:31;5.63;;;3.65;;
10945;SDS011;5525;42.648;23.368;2023-04-15T03:54:58;5.10;;;3.63;;
10945;SDS011;5525;42.648;23.368;2023-04-15T03:57:24;5.35;;;3.85;;
10945;SDS011;5525;42.648;23.368;2023-04-15T03:59:52;4.63;;;3.40;;
10945;SDS011;5525;42.648;23.368;2023-04-15T04:02:19;5.97;;;3.67;;
10945;SDS011;5525;42.648;23.368;2023-04-15T04:04:47;5.18;;;3.63;;
10945;SDS011;5525;42.648;23.368;2023-04-15T04:07:14;6.57;;;4.32;;
10945;SDS011;5525;42.648;23.368;2023-04-15T04:09:41;4.85;;;3.70;;
10945;SDS011;5525;42.648;23.368;2023-04-15T04:12:08;5.32;;;4.00;;
10945;SDS011;5525;42.648;23.368;2023-04-15T04:14:34;5.00;;;4.15;;
10945;SDS011;5525;42.648;23.368;2023-04-15T04:17:02;5.18;;;3.80;;
10945;SDS011;5525;42.648;23.368;2023-04-15T04:19:29;6.60;;;4.35;;
10945;SDS011;5525;42.648;23.368;2023-04-15T04:21:56;5.75;;;4.03;;
10945;SDS011;5525;42.648;23.368;2023-04-15T04:24:23;5.30;;;4.03;;
10945;SDS011;5525;42.648;23.368;2023-04-15T04:26:49;5.60;;;3.80;;
10945;SDS011;5525;42.648;23.368;2023-04-15T04:29:16;7.57;;;5.07;;
10945;SDS011;5525;42.648;23.368;2023-04-15T04:31:43;6.80;;;4.40;;
10945;SDS011;5525;42.648;23.368;2023-04-15T04:34:11;6.47;;;4.35;;
10945;SDS011;5525;42.648;23.368;2023-04-15T04:36:38;5.95;;;4.50;;
10945;SDS011;5525;42.648;23.368;2023-04-15T04:39:04;5.88;;;4.45;;
10945;SDS011;5525;42.648;23.368;2023-04-15T04:41:31;7.15;;;5.13;;
10945;SDS011;5525;42.648;23.368;2023-04-15T04:43:57;5.80;;;4.78;;
10945;SDS011;5525;42.648;23.368;2023-04-15T04:46:24;6.95;;;5.28;;
10945;SDS011;5525;42.648;23.368;2023-04-15T04:48:51;9.60;;;5.75;;
10945;SDS011;5525;42.648;23.368;2023-04-15T04:51:19;7.45;;;5.85;;
10945;SDS011;5525;42.648;23.368;2023-04-15T04:53:46;6.95;;;5.55;;
10945;SDS011;5525;42.648;23.368;2023-04-15T04:56:12;9.95;;;5.93;;
10945;SDS011;5525;42.648;23.368;2023-04-15T04:58:39;12.32;;;6.28;;
10945;SDS011;5525;42.648;23.368;2023-04-15T05:01:06;7.55;;;5.88;;
10945;SDS011;5525;42.648;23.368;2023-04-15T05:03:33;7.90;;;6.18;;
10945;SDS011;5525;42.648;23.368;2023-04-15T05:05:59;8.40;;;6.22;;
10945;SDS011;5525;42.648;23.368;2023-04-15T05:08:28;7.85;;;6.25;;
10945;SDS011;5525;42.648;23.368;2023-04-15T05:10:55;8.43;;;6.20;;
10945;SDS011;5525;42.648;23.368;2023-04-15T05:13:21;9.18;;;6.43;;
10945;SDS011;5525;42.648;23.368;2023-04-15T05:15:48;10.00;;;6.70;;
10945;SDS011;5525;42.648;23.368;2023-04-15T05:18:15;8.90;;;6.20;;
10945;SDS011;5525;42.648;23.368;2023-04-15T05:20:41;7.53;;;5.50;;
10945;SDS011;5525;42.648;23.368;2023-04-15T05:23:08;8.95;;;6.63;;
10945;SDS011;5525;42.648;23.368;2023-04-15T05:25:36;10.57;;;6.43;;
10945;SDS011;5525;42.648;23.368;2023-04-15T05:28:03;8.55;;;7.53;;
10945;SDS011;5525;42.648;23.368;2023-04-15T05:30:29;9.32;;;6.43;;
10945;SDS011;5525;42.648;23.368;2023-04-15T05:32:56;7.05;;;4.53;;
10945;SDS011;5525;42.648;23.368;2023-04-15T05:35:23;6.35;;;4.10;;
10945;SDS011;5525;42.648;23.368;2023-04-15T05:37:49;7.10;;;4.78;;
10945;SDS011;5525;42.648;23.368;2023-04-15T05:40:16;6.55;;;4.55;;
10945;SDS011;5525;42.648;23.368;2023-04-15T05:42:45;5.57;;;4.45;;
10945;SDS011;5525;42.648;23.368;2023-04-15T05:45:12;6.90;;;4.18;;
10945;SDS011;5525;42.648;23.368;2023-04-15T05:47:38;5.90;;;4.18;;
10945;SDS011;5525;42.648;23.368;2023-04-15T05:50:05;6.82;;;3.92;;
10945;SDS011;5525;42.648;23.368;2023-04-15T05:52:32;9.73;;;4.90;;
10945;SDS011;5525;42.648;23.368;2023-04-15T05:54:59;6.82;;;4.47;;
10945;SDS011;5525;42.648;23.368;2023-04-15T05:57:26;6.30;;;5.15;;
10945;SDS011;5525;42.648;23.368;2023-04-15T05:59:54;7.07;;;5.40;;
10945;SDS011;5525;42.648;23.368;2023-04-15T06:02:21;8.00;;;5.38;;
10945;SDS011;5525;42.648;23.368;2023-04-15T06:04:48;7.70;;;5.57;;
10945;SDS011;5525;42.648;23.368;2023-04-15T06:07:14;6.07;;;4.22;;
10945;SDS011;5525;42.648;23.368;2023-04-15T06:09:41;5.97;;;3.58;;
10945;SDS011;5525;42.648;23.368;2023-04-15T06:12:08;4.50;;;3.63;;
10945;SDS011;5525;42.648;23.368;2023-04-15T06:14:37;3.47;;;2.80;;
10945;SDS011;5525;42.648;23.368;2023-04-15T06:17:05;4.40;;;2.60;;
10945;SDS011;5525;42.648;23.368;2023-04-15T06:19:32;5.00;;;3.30;;
10945;SDS011;5525;42.648;23.368;2023-04-15T06:22:00;4.88;;;3.33;;
10945;SDS011;5525;42.648;23.368;2023-04-15T06:24:27;5.25;;;3.65;;
10945;SDS011;5525;42.648;23.368;2023-04-15T06:26:53;5.00;;;3.00;;
10945;SDS011;5525;42.648;23.368;2023-04-15T06:29:21;3.42;;;2.90;;
10945;SDS011;5525;42.648;23.368;2023-04-15T06:31:48;5.40;;;3.17;;
10945;SDS011;5525;42.648;23.368;2023-04-15T06:34:16;6.50;;;3.50;;
10945;SDS011;5525;42.648;23.368;2023-04-15T06:36:43;8.50;;;3.60;;
10945;SDS011;5525;42.648;23.368;2023-04-15T06:39:09;5.82;;;3.30;;
10945;SDS011;5525;42.648;23.368;2023-04-15T06:41:36;4.45;;;3.22;;
10945;SDS011;5525;42.648;23.368;2023-04-15T06:44:03;4.25;;;3.08;;
10945;SDS011;5525;42.648;23.368;2023-04-15T06:46:30;8.43;;;3.38;;
10945;SDS011;5525;42.648;23.368;2023-04-15T06:48:56;6.07;;;3.78;;
10945;SDS011;5525;42.648;23.368;2023-04-15T06:51:24;5.20;;;3.85;;
10945;SDS011;5525;42.648;23.368;2023-04-15T06:53:51;5.95;;;3.33;;
10945;SDS011;5525;42.648;23.368;2023-04-15T06:56:18;6.78;;;3.53;;
10945;SDS011;5525;42.648;23.368;2023-04-15T06:58:46;5.78;;;3.58;;
10945;SDS011;5525;42.648;23.368;2023-04-15T07:01:12;4.10;;;3.25;;
10945;SDS011;5525;42.648;23.368;2023-04-15T07:03:39;7.47;;;3.65;;
10945;SDS011;5525;42.648;23.368;2023-04-15T07:06:06;3.90;;;3.10;;
10945;SDS011;5525;42.648;23.368;2023-04-15T07:08:35;5.28;;;3.35;;
10945;SDS011;5525;42.648;23.368;2023-04-15T07:11:02;5.45;;;3.42;;
10945;SDS011;5525;42.648;23.368;2023-04-15T07:13:29;6.32;;;3.60;;
10945;SDS011;5525;42.648;23.368;2023-04-15T07:15:56;6.20;;;3.60;;
10945;SDS011;5525;42.648;23.368;2023-04-15T07:18:23;6.90;;;3.97;;
10945;SDS011;5525;42.648;23.368;2023-04-15T07:20:50;5.78;;;3.50;;
10945;SDS011;5525;42.648;23.368;2023-04-15T07:23:16;4.15;;;3.28;;
10945;SDS011;5525;42.648;23.368;2023-04-15T07:25:44;3.58;;;2.90;;
10945;SDS011;5525;42.648;23.368;2023-04-15T07:28:11;3.70;;;2.88;;
10945;SDS011;5525;42.648;23.368;2023-04-15T07:30:38;5.07;;;3.22;;
10945;SDS011;5525;42.648;23.368;2023-04-15T07:33:05;3.80;;;2.80;;
10945;SDS011;5525;42.648;23.368;2023-04-15T07:35:32;4.43;;;3.08;;
10945;SDS011;5525;42.648;23.368;2023-04-15T07:37:58;5.63;;;3.20;;
10945;SDS011;5525;42.648;23.368;2023-04-15T07:40:25;6.40;;;3.10;;
10945;SDS011;5525;42.648;23.368;2023-04-15T07:42:53;10.25;;;3.63;;
10945;SDS011;5525;42.648;23.368;2023-04-15T07:45:22;5.43;;;2.90;;
10945;SDS011;5525;42.648;23.368;2023-04-15T07:47:49;4.80;;;2.92;;
10945;SDS011;5525;42.648;23.368;2023-04-15T07:50:15;5.32;;;2.97;;
10945;SDS011;5525;42.648;23.368;2023-04-15T07:52:43;8.60;;;3.17;;
10945;SDS011;5525;42.648;23.368;2023-04-15T07:55:10;6.60;;;3.33;;
10945;SDS011;5525;42.648;23.368;2023-04-15T07:57:37;3.85;;;3.03;;
10945;SDS011;5525;42.648;23.368;2023-04-15T08:00:06;4.47;;;2.80;;
10945;SDS011;5525;42.648;23.368;2023-04-15T08:02:34;4.70;;;2.83;;
10945;SDS011;5525;42.648;23.368;2023-04-15T08:05:00;4.07;;;3.00;;
10945;SDS011;5525;42.648;23.368;2023-04-15T08:07:28;4.25;;;2.70;;
10945;SDS011;5525;42.648;23.368;2023-04-15T08:09:55;4.85;;;3.20;;
10945;SDS011;5525;42.648;23.368;2023-04-15T08:12:22;5.28;;;3.20;;
10945;SDS011;5525;42.648;23.368;2023-04-15T08:14:49;3.63;;;3.00;;
10945;SDS011;5525;42.648;23.368;2023-04-15T08:17:17;4.25;;;2.60;;
10945;SDS011;5525;42.648;23.368;2023-04-15T08:19:44;3.13;;;2.67;;
10945;SDS011;5525;42.648;23.368;2023-04-15T08:22:12;5.07;;;2.60;;
10945;SDS011;5525;42.648;23.368;2023-04-15T08:24:39;4.97;;;3.08;;
10945;SDS011;5525;42.648;23.368;2023-04-15T08:27:05;4.18;;;2.60;;
10945;SDS011;5525;42.648;23.368;2023-04-15T08:29:33;3.33;;;2.88;;
10945;SDS011;5525;42.648;23.368;2023-04-15T08:32:00;4.05;;;2.20;;
10945;SDS011;5525;42.648;23.368;2023-04-15T08:34:28;5.03;;;2.67;;
10945;SDS011;5525;42.648;23.368;2023-04-15T08:36:55;4.10;;;2.40;;
10945;SDS011;5525;42.648;23.368;2023-04-15T08:39:22;5.15;;;2.70;;
10945;SDS011;5525;42.648;23.368;2023-04-15T08:41:50;2.78;;;2.00;;
10945;SDS011;5525;42.648;23.368;2023-04-15T08:44:22;3.05;;;2.20;;
10945;SDS011;5525;42.648;23.368;2023-04-15T08:46:49;3.88;;;2.35;;
10945;SDS011;5525;42.648;23.368;2023-04-15T08:49:17;3.05;;;1.67;;
10945;SDS011;5525;42.648;23.368;2023-04-15T08:51:47;3.47;;;2.10;;
10945;SDS011;5525;42.648;23.368;2023-04-15T08:54:14;3.75;;;2.10;;
10945;SDS011;5525;42.648;23.368;2023-04-15T08:56:41;4.55;;;2.30;;
10945;SDS011;5525;42.648;23.368;2023-04-15T08:59:08;3.50;;;1.90;;
10945;SDS011;5525;42.648;23.368;2023-04-15T09:01:35;3.30;;;2.05;;
10945;SDS011;5525;42.648;23.368;2023-04-15T09:04:03;3.88;;;2.40;;
10945;SDS011;5525;42.648;23.368;2023-04-15T09:06:32;3.55;;;2.08;;
10945;SDS011;5525;42.648;23.368;2023-04-15T09:09:00;5.70;;;2.30;;
10945;SDS011;5525;42.648;23.368;2023-04-15T09:11:27;2.00;;;1.70;;
10945;SDS011;5525;42.648;23.368;2023-04-15T09:13:56;2.17;;;1.83;;
10945;SDS011;5525;42.648;23.368;2023-04-15T09:16:22;4.40;;;1.98;;
10945;SDS011;5525;42.648;23.368;2023-04-15T09:18:49;2.20;;;1.60;;
10945;SDS011;5525;42.648;23.368;2023-04-15T09:21:16;3.20;;;1.52;;
10945;SDS011;5525;42.648;23.368;2023-04-15T09:23:52;3.05;;;1.70;;
10945;SDS011;5525;42.648;23.368;2023-04-15T09:26:29;4.13;;;1.60;;
10945;SDS011;5525;42.648;23.368;2023-04-15T09:29:01;1.90;;;1.50;;
10945;SDS011;5525;42.648;23.368;2023-04-15T09:31:29;2.17;;;1.52;;
10945;SDS011;5525;42.648;23.368;2023-04-15T09:33:56;3.50;;;1.58;;
10945;SDS011;5525;42.648;23.368;2023-04-15T09:36:23;4.70;;;1.60;;
10945;SDS011;5525;42.648;23.368;2023-04-15T09:38:54;3.35;;;1.30;;
10945;SDS011;5525;42.648;23.368;2023-04-15T09:41:21;4.00;;;1.40;;
10945;SDS011;5525;42.648;23.368;2023-04-15T09:43:49;1.73;;;1.02;;
10945;SDS011;5525;42.648;23.368;2023-04-15T09:46:16;3.00;;;1.08;;
10945;SDS011;5525;42.648;23.368;2023-04-15T09:48:43;1.30;;;1.05;;
10945;SDS011;5525;42.648;23.368;2023-04-15T09:51:10;1.67;;;1.55;;
10945;SDS011;5525;42.648;23.368;2023-04-15T09:53:37;1.98;;;1.48;;
10945;SDS011;5525;42.648;23.368;2023-04-15T09:56:04;3.33;;;1.40;;
10945;SDS011;5525;42.648;23.368;2023-04-15T09:58:33;2.00;;;1.30;;
10945;SDS011;5525;42.648;23.368;2023-04-15T10:01:04;1.23;;;1.00;;
10945;SDS011;5525;42.648;23.368;2023-04-15T10:03:32;1.45;;;1.05;;
10945;SDS011;5525;42.648;23.368;2023-04-15T10:06:00;4.90;;;2.15;;
10945;SDS011;5525;42.648;23.368;2023-04-15T10:08:30;2.75;;;1.30;;
10945;SDS011;5525;42.648;23.368;2023-04-15T10:10:59;2.92;;;1.25;;
10945;SDS011;5525;42.648;23.368;2023-04-15T10:13:28;3.20;;;1.00;;
10945;SDS011;5525;42.648;23.368;2023-04-15T10:16:01;2.17;;;1.20;;
10945;SDS011;5525;42.648;23.368;2023-04-15T10:18:33;1.20;;;1.10;;
10945;SDS011;5525;42.648;23.368;2023-04-15T10:21:01;1.98;;;1.00;;
10945;SDS011;5525;42.648;23.368;2023-04-15T10:23:28;2.67;;;0.80;;
10945;SDS011;5525;42.648;23.368;2023-04-15T10:25:55;1.23;;;0.98;;
10945;SDS011;5525;42.648;23.368;2023-04-15T10:28:23;2.38;;;1.27;;
10945;SDS011;5525;42.648;23.368;2023-04-15T10:30:51;2.65;;;1.00;;
10945;SDS011;5525;42.648;23.368;2023-04-15T10:33:20;1.58;;;1.17;;
10945;SDS011;5525;42.648;23.368;2023-04-15T10:35:48;1.85;;;1.08;;
10945;SDS011;5525;42.648;23.368;2023-04-15T10:38:32;1.67;;;1.20;;
10945;SDS011;5525;42.648;23.368;2023-04-15T10:43:48;2.97;;;1.10;;
10945;SDS011;5525;42.648;23.368;2023-04-15T10:46:23;2.28;;;1.30;;
10945;SDS011;5525;42.648;23.368;2023-04-15T10:49:07;4.15;;;1.00;;
10945;SDS011;5525;42.648;23.368;2023-04-15T10:51:36;2.03;;;1.15;;
10945;SDS011;5525;42.648;23.368;2023-04-15T10:54:07;4.00;;;1.42;;
10945;SDS011;5525;42.648;23.368;2023-04-15T10:56:40;1.70;;;1.10;;
10945;SDS011;5525;42.648;23.368;2023-04-15T10:59:07;1.90;;;1.15;;
10945;SDS011;5525;42.648;23.368;2023-04-15T11:01:50;2.33;;;1.30;;
10945;SDS011;5525;42.648;23.368;2023-04-15T11:13:25;2.03;;;1.30;;
10945;SDS011;5525;42.648;23.368;2023-04-15T11:15:56;2.13;;;1.10;;
10945;SDS011;5525;42.648;23.368;2023-04-15T11:18:26;2.58;;;1.10;;
10945;SDS011;5525;42.648;23.368;2023-04-15T11:20:55;3.67;;;1.10;;
10945;SDS011;5525;42.648;23.368;2023-04-15T11:23:26;2.28;;;1.25;;
10945;SDS011;5525;42.648;23.368;2023-04-15T11:25:54;2.75;;;1.13;;
10945;SDS011;5525;42.648;23.368;2023-04-15T11:28:21;1.60;;;1.20;;
10945;SDS011;5525;42.648;23.368;2023-04-15T11:30:53;3.92;;;1.40;;
10945;SDS011;5525;42.648;23.368;2023-04-15T11:33:21;2.25;;;1.35;;
10945;SDS011;5525;42.648;23.368;2023-04-15T11:35:49;2.75;;;1.13;;
10945;SDS011;5525;42.648;23.368;2023-04-15T11:38:16;2.25;;;1.35;;
10945;SDS011;5525;42.648;23.368;2023-04-15T11:40:43;4.50;;;1.50;;
10945;SDS011;5525;42.648;23.368;2023-04-15T11:43:11;2.53;;;1.73;;
10945;SDS011;5525;42.648;23.368;2023-04-15T11:45:48;1.58;;;1.05;;
10945;SDS011;5525;42.648;23.368;2023-04-15T11:48:16;2.85;;;1.20;;
10945;SDS011;5525;42.648;23.368;2023-04-15T11:50:43;2.03;;;1.10;;
10945;SDS011;5525;42.648;23.368;2023-04-15T11:53:11;4.22;;;1.10;;
10945;SDS011;5525;42.648;23.368;2023-04-15T11:55:42;1.77;;;1.05;;
10945;SDS011;5525;42.648;23.368;2023-04-15T11:58:11;2.35;;;0.80;;
10945;SDS011;5525;42.648;23.368;2023-04-15T12:00:40;1.73;;;0.70;;
10945;SDS011;5525;42.648;23.368;2023-04-15T12:03:18;1.15;;;0.80;;
10945;SDS011;5525;42.648;23.368;2023-04-15T12:06:05;1.45;;;0.60;;
10945;SDS011;5525;42.648;23.368;2023-04-15T12:08:56;1.50;;;0.70;;
10945;SDS011;5525;42.648;23.368;2023-04-15T12:11:33;2.58;;;1.10;;
10945;SDS011;5525;42.648;23.368;2023-04-15T12:14:07;1.35;;;1.05;;
10945;SDS011;5525;42.648;23.368;2023-04-15T12:16:36;1.38;;;0.90;;
10945;SDS011;5525;42.648;23.368;2023-04-15T12:19:08;2.78;;;1.05;;
10945;SDS011;5525;42.648;23.368;2023-04-15T12:21:36;2.00;;;1.20;;
10945;SDS011;5525;42.648;23.368;2023-04-15T12:24:05;2.45;;;1.00;;
10945;SDS011;5525;42.648;23.368;2023-04-15T12:26:35;2.53;;;0.82;;
10945;SDS011;5525;42.648;23.368;2023-04-15T12:29:04;1.60;;;0.60;;
10945;SDS011;5525;42.648;23.368;2023-04-15T12:31:32;2.38;;;0.80;;
10945;SDS011;5525;42.648;23.368;2023-04-15T12:34:00;1.52;;;0.80;;
10945;SDS011;5525;42.648;23.368;2023-04-15T12:36:29;2.28;;;0.80;;
10945;SDS011;5525;42.648;23.368;2023-04-15T12:39:00;2.28;;;0.90;;
10945;SDS011;5525;42.648;23.368;2023-04-15T12:41:27;2.35;;;0.90;;
10945;SDS011;5525;42.648;23.368;2023-04-15T12:43:54;1.13;;;0.77;;
10945;SDS011;5525;42.648;23.368;2023-04-15T12:46:20;2.05;;;0.65;;
10945;SDS011;5525;42.648;23.368;2023-04-15T12:48:47;0.93;;;0.60;;
10945;SDS011;5525;42.648;23.368;2023-04-15T12:51:15;1.23;;;0.80;;
10945;SDS011;5525;42.648;23.368;2023-04-15T12:53:43;1.13;;;0.65;;
10945;SDS011;5525;42.648;23.368;2023-04-15T12:56:09;1.50;;;0.75;;
10945;SDS011;5525;42.648;23.368;2023-04-15T12:58:36;0.65;;;0.60;;
10945;SDS011;5525;42.648;23.368;2023-04-15T13:01:03;2.75;;;0.70;;
10945;SDS011;5525;42.648;23.368;2023-04-15T13:03:30;2.15;;;0.73;;
10945;SDS011;5525;42.648;23.368;2023-04-15T13:05:57;1.05;;;0.60;;
10945;SDS011;5525;42.648;23.368;2023-04-15T13:08:26;1.17;;;0.77;;
10945;SDS011;5525;42.648;23.368;2023-04-15T13:10:54;1.33;;;0.75;;
10945;SDS011;5525;42.648;23.368;2023-04-15T13:13:21;1.90;;;0.75;;
10945;SDS011;5525;42.648;23.368;2023-04-15T13:15:48;1.75;;;0.70;;
10945;SDS011;5525;42.648;23.368;2023-04-15T13:18:15;1.02;;;0.50;;
10945;SDS011;5525;42.648;23.368;2023-04-15T13:20:41;1.20;;;0.80;;
10945;SDS011;5525;42.648;23.368;2023-04-15T13:23:08;1.85;;;0.50;;
10945;SDS011;5525;42.648;23.368;2023-04-15T13:25:34;1.45;;;0.70;;
10945;SDS011;5525;42.648;23.368;2023-04-15T13:28:03;1.65;;;0.75;;
10945;SDS011;5525;42.648;23.368;2023-04-15T13:30:29;3.08;;;0.77;;
10945;SDS011;5525;42.648;23.368;2023-04-15T13:32:56;1.02;;;0.60;;
10945;SDS011;5525;42.648;23.368;2023-04-15T13:35:23;1.15;;;0.60;;
10945;SDS011;5525;42.648;23.368;2023-04-15T13:37:49;0.90;;;0.57;;
10945;SDS011;5525;42.648;23.368;2023-04-15T13:40:16;1.45;;;0.75;;
10945;SDS011;5525;42.648;23.368;2023-04-15T13:42:43;1.90;;;0.73;;
10945;SDS011;5525;42.648;23.368;2023-04-15T13:45:11;2.53;;;0.80;;
10945;SDS011;5525;42.648;23.368;2023-04-15T13:47:38;0.85;;;0.57;;
10945;SDS011;5525;42.648;23.368;2023-04-15T13:50:05;0.90;;;0.70;;
10945;SDS011;5525;42.648;23.368;2023-04-15T13:52:32;1.15;;;0.60;;
10945;SDS011;5525;42.648;23.368;2023-04-15T13:54:59;0.95;;;0.70;;
10945;SDS011;5525;42.648;23.368;2023-04-15T13:57:26;1.05;;;0.70;;
10945;SDS011;5525;42.648;23.368;2023-04-15T13:59:52;1.42;;;0.70;;
10945;SDS011;5525;42.648;23.368;2023-04-15T14:02:20;1.80;;;0.68;;
10945;SDS011;5525;42.648;23.368;2023-04-15T14:04:48;1.15;;;0.70;;
10945;SDS011;5525;42.648;23.368;2023-04-15T14:07:14;1.65;;;0.70;;
10945;SDS011;5525;42.648;23.368;2023-04-15T14:09:41;0.98;;;0.68;;
10945;SDS011;5525;42.648;23.368;2023-04-15T14:12:08;1.10;;;0.50;;
10945;SDS011;5525;42.648;23.368;2023-04-15T14:14:35;1.05;;;0.70;;
10945;SDS011;5525;42.648;23.368;2023-04-15T14:17:02;1.52;;;0.70;;
10945;SDS011;5525;42.648;23.368;2023-04-15T14:19:30;1.38;;;0.82;;
10945;SDS011;5525;42.648;23.368;2023-04-15T14:21:57;0.82;;;0.73;;
10945;SDS011;5525;42.648;23.368;2023-04-15T14:24:24;2.88;;;0.60;;
10945;SDS011;5525;42.648;23.368;2023-04-15T14:26:51;2.08;;;0.68;;
10945;SDS011;5525;42.648;23.368;2023-04-15T14:29:18;2.20;;;0.70;;
10945;SDS011;5525;42.648;23.368;2023-04-15T14:31:45;0.90;;;0.43;;
10945;SDS011;5525;42.648;23.368;2023-04-15T14:34:12;0.85;;;0.73;;
10945;SDS011;5525;42.648;23.368;2023-04-15T14:36:40;1.92;;;0.52;;
10945;SDS011;5525;42.648;23.368;2023-04-15T14:39:08;1.17;;;0.70;;
10945;SDS011;5525;42.648;23.368;2023-04-15T14:41:35;1.08;;;0.77;;
10945;SDS011;5525;42.648;23.368;2023-04-15T14:44:01;2.90;;;0.90;;
10945;SDS011;5525;42.648;23.368;2023-04-15T14:46:28;1.45;;;0.70;;
10945;SDS011;5525;42.648;23.368;2023-04-15T14:48:55;1.20;;;0.75;;
10945;SDS011;5525;42.648;23.368;2023-04-15T14:51:22;1.55;;;0.90;;
10945;SDS011;5525;42.648;23.368;2023-04-15T14:53:50;1.58;;;0.65;;
10945;SDS011;5525;42.648;23.368;2023-04-15T14:56:16;1.48;;;0.80;;
10945;SDS011;5525;42.648;23.368;2023-04-15T14:58:43;5.20;;;0.90;;
10945;SDS011;5525;42.648;23.368;2023-04-15T15:01:10;0.85;;;0.52;;
10945;SDS011;5525;42.648;23.368;2023-04-15T15:03:36;1.13;;;0.77;;